createdAt,value
2022-11-22T00:00:50.148Z,97775.97
2022-11-22T00:03:18.000Z,97774.34
2022-11-22T00:05:45.505Z,97778.28
2022-11-22T00:08:12.994Z,97770.38
2022-11-22T00:10:40.533Z,97785.16
2022-11-22T00:13:08.017Z,97782.44
2022-11-22T00:15:35.612Z,97781.44
2022-11-22T00:18:02.967Z,97781.59
2022-11-22T00:20:30.464Z,97764.72
2022-11-22T00:22:58.582Z,97772.88
2022-11-22T00:25:26.546Z,97789.00
2022-11-22T00:27:54.532Z,97786.53
2022-11-22T00:30:21.973Z,97783.91
2022-11-22T00:32:49.357Z,97783.63
2022-11-22T00:35:16.879Z,97792.84
2022-11-22T00:37:44.229Z,97792.50
2022-11-22T00:40:12.069Z,97799.41
2022-11-22T00:42:40.145Z,97801.81
2022-11-22T00:45:08.155Z,97808.16
2022-11-22T00:47:35.539Z,97812.09
2022-11-22T00:50:02.975Z,97808.97
2022-11-22T00:52:31.184Z,97813.97
2022-11-22T00:54:58.640Z,97812.72
2022-11-22T00:57:25.956Z,97812.97
2022-11-22T00:59:53.374Z,97824.84
2022-11-22T01:02:20.831Z,97825.34
2022-11-22T01:04:48.175Z,97825.06
2022-11-22T01:07:15.618Z,97829.06
2022-11-22T01:09:43.032Z,97837.50
2022-11-22T01:12:10.544Z,97827.25
2022-11-22T01:14:37.906Z,97831.69
2022-11-22T01:17:05.367Z,97839.88
2022-11-22T01:19:33.061Z,97844.88
2022-11-22T01:22:00.529Z,97843.25
2022-11-22T01:24:27.893Z,97853.56
2022-11-22T01:26:55.622Z,97847.25
2022-11-22T01:29:23.050Z,97849.97
2022-11-22T01:31:50.448Z,97855.47
2022-11-22T01:34:17.814Z,97852.06
2022-11-22T01:36:45.263Z,97860.47
2022-11-22T01:39:12.866Z,97868.94
2022-11-22T01:41:40.244Z,97859.41
2022-11-22T01:44:39.933Z,97869.06
2022-11-22T01:47:14.252Z,97865.03
2022-11-22T01:49:48.467Z,97884.09
2022-11-22T01:52:22.072Z,97875.84
2022-11-22T01:55:13.588Z,97880.09
2022-11-22T01:57:43.637Z,97875.63
2022-11-22T02:00:14.966Z,97895.47
2022-11-22T02:02:50.177Z,97886.72
2022-11-22T02:05:22.021Z,97890.97
2022-11-22T02:08:33.798Z,97900.94
2022-11-22T02:11:03.946Z,97902.06
2022-11-22T02:13:35.162Z,97903.13
2022-11-22T02:16:03.718Z,97909.50
2022-11-22T02:18:32.355Z,97911.13
2022-11-22T02:21:00.164Z,97905.28
2022-11-22T02:23:50.295Z,97919.75
2022-11-22T02:26:18.108Z,97912.44
2022-11-22T02:28:45.843Z,97920.88
2022-11-22T02:31:39.713Z,97926.03
2022-11-22T02:34:07.628Z,97927.75
2022-11-22T02:36:40.001Z,97928.78
2022-11-22T02:39:09.460Z,97928.81
2022-11-22T02:41:38.122Z,97930.63
2022-11-22T02:44:07.942Z,97933.50
2022-11-22T02:46:35.388Z,97931.13
2022-11-22T02:49:02.840Z,97937.22
2022-11-22T02:51:30.440Z,97929.84
2022-11-22T02:53:57.981Z,97947.25
2022-11-22T02:56:25.412Z,97948.81
2022-11-22T02:58:52.743Z,97939.28
2022-11-22T03:01:20.158Z,97929.22
2022-11-22T03:03:47.676Z,97939.00
2022-11-22T03:06:14.973Z,97949.59
2022-11-22T03:08:42.454Z,97961.50
2022-11-22T03:11:09.953Z,97954.06
2022-11-22T03:13:38.777Z,97963.59
2022-11-22T03:16:06.315Z,97965.16
2022-11-22T03:18:35.069Z,97974.66
2022-11-22T03:21:04.035Z,97976.19
2022-11-22T03:23:31.699Z,97979.44
2022-11-22T03:26:00.009Z,97978.06
2022-11-22T03:28:27.395Z,97980.44
2022-11-22T03:30:54.854Z,97979.94
2022-11-22T03:33:22.204Z,97977.34
2022-11-22T03:35:49.601Z,97987.38
2022-11-22T03:38:17.017Z,97995.56
2022-11-22T03:40:47.174Z,97993.13
2022-11-22T03:43:14.591Z,97998.69
2022-11-22T03:45:48.705Z,98002.09
2022-11-22T03:48:16.204Z,98001.16
2022-11-22T03:50:43.802Z,97997.41
2022-11-22T03:53:11.709Z,97997.69
2022-11-22T03:55:39.426Z,98000.34
2022-11-22T03:58:07.177Z,98004.28
2022-11-22T04:00:35.172Z,98003.78
2022-11-22T04:03:02.624Z,98006.94
2022-11-22T04:05:29.989Z,98010.66
2022-11-22T04:08:00.011Z,98009.38
2022-11-22T04:10:27.548Z,98010.16
2022-11-22T04:12:59.588Z,98018.25
2022-11-22T04:15:27.754Z,98017.53
2022-11-22T04:17:55.431Z,98022.25
2022-11-22T04:20:46.591Z,98027.03
2022-11-22T04:23:19.633Z,98025.38
2022-11-22T04:25:50.600Z,98012.91
2022-11-22T04:28:20.280Z,98020.59
2022-11-22T04:31:07.356Z,98027.75
2022-11-22T04:33:35.652Z,98030.13
2022-11-22T04:36:19.026Z,98034.06
2022-11-22T04:38:46.383Z,98034.63
2022-11-22T04:41:22.122Z,98033.66
2022-11-22T04:44:08.872Z,98028.41
2022-11-22T04:46:36.556Z,98038.38
2022-11-22T04:49:04.369Z,98040.47
2022-11-22T04:51:53.152Z,98036.81
2022-11-22T04:54:26.084Z,98051.81
2022-11-22T04:56:55.592Z,98055.25
2022-11-22T04:59:23.612Z,98043.94
2022-11-22T05:01:53.132Z,98063.59
2022-11-22T05:04:20.901Z,98063.59
2022-11-22T05:06:52.053Z,98064.09
2022-11-22T05:09:29.154Z,98075.44
2022-11-22T05:11:58.262Z,98052.28
2022-11-22T05:14:25.904Z,98066.63
2022-11-22T05:16:53.213Z,98069.75
2022-11-22T05:19:20.496Z,98073.16
2022-11-22T05:21:47.917Z,98078.41
2022-11-22T05:24:15.312Z,98076.78
2022-11-22T05:26:43.003Z,98088.88
2022-11-22T05:29:11.022Z,98084.78
2022-11-22T05:31:40.173Z,98088.69
2022-11-22T05:34:07.806Z,98090.75
2022-11-22T05:36:35.887Z,98093.06
2022-11-22T05:39:04.351Z,98096.44
2022-11-22T05:41:31.747Z,98097.94
2022-11-22T05:43:59.459Z,98093.91
2022-11-22T05:46:29.080Z,98101.28
2022-11-22T05:48:58.070Z,98110.25
2022-11-22T05:51:32.520Z,98105.47
2022-11-22T05:54:02.040Z,98109.13
2022-11-22T05:56:29.487Z,98115.81
2022-11-22T05:58:56.906Z,98106.19
2022-11-22T06:01:25.201Z,98110.84
2022-11-22T06:03:53.273Z,98105.81
2022-11-22T06:06:20.943Z,98121.59
2022-11-22T06:08:48.843Z,98130.75
2022-11-22T06:11:18.824Z,98142.91
2022-11-22T06:13:47.798Z,98140.97
2022-11-22T06:16:15.996Z,98150.72
2022-11-22T06:18:44.054Z,98143.75
2022-11-22T06:21:14.440Z,98142.84
2022-11-22T06:23:42.497Z,98142.78
2022-11-22T06:26:15.096Z,98142.41
2022-11-22T06:28:43.326Z,98153.69
2022-11-22T06:31:16.319Z,98142.16
2022-11-22T06:33:44.902Z,98150.25
2022-11-22T06:36:18.198Z,98151.16
2022-11-22T06:38:46.541Z,98152.63
2022-11-22T06:41:19.583Z,98161.59
2022-11-22T06:43:49.823Z,98164.94
2022-11-22T06:46:19.665Z,98165.34
2022-11-22T06:48:47.842Z,98166.34
2022-11-22T06:51:24.258Z,98167.03
2022-11-22T06:53:53.064Z,98171.56
2022-11-22T06:56:21.936Z,98175.53
2022-11-22T06:58:51.116Z,98167.03
2022-11-22T07:01:21.301Z,98175.22
2022-11-22T07:03:49.757Z,98178.38
2022-11-22T07:06:19.017Z,98169.00
2022-11-22T07:08:46.998Z,98172.66
2022-11-22T07:11:17.502Z,98177.38
2022-11-22T07:13:45.541Z,98177.28
2022-11-22T07:16:15.179Z,98180.84
2022-11-22T07:18:42.747Z,98178.38
2022-11-22T07:21:13.436Z,98185.66
2022-11-22T07:23:42.945Z,98179.13
2022-11-22T07:26:11.309Z,98180.63
2022-11-22T07:28:39.396Z,98173.00
2022-11-22T07:31:08.971Z,98183.44
2022-11-22T07:33:36.645Z,98181.44
2022-11-22T07:36:12.153Z,98176.00
2022-11-22T07:38:39.786Z,98181.53
2022-11-22T07:41:08.439Z,98180.34
2022-11-22T07:43:36.226Z,98187.91
2022-11-22T07:46:11.960Z,98185.13
2022-11-22T07:48:39.452Z,98181.56
2022-11-22T07:51:07.795Z,98196.66
2022-11-22T07:53:35.825Z,98176.66
2022-11-22T07:56:07.022Z,98199.06
2022-11-22T07:58:35.057Z,98190.28
2022-11-22T08:01:21.783Z,98194.28
2022-11-22T08:03:49.410Z,98203.22
2022-11-22T08:06:16.861Z,98196.78
2022-11-22T08:08:44.760Z,98192.22
2022-11-22T08:11:12.731Z,98205.25
2022-11-22T08:13:40.511Z,98204.47
2022-11-22T08:16:11.399Z,98206.03
2022-11-22T08:18:39.643Z,98206.97
2022-11-22T08:21:11.752Z,98202.25
2022-11-22T08:23:39.973Z,98216.66
2022-11-22T08:26:10.063Z,98219.63
2022-11-22T08:28:37.443Z,98220.16
2022-11-22T08:31:16.969Z,98218.47
2022-11-22T08:33:44.409Z,98203.91
2022-11-22T08:36:12.220Z,98222.44
2022-11-22T08:38:39.950Z,98226.00
2022-11-22T08:41:07.477Z,98228.78
2022-11-22T08:43:35.131Z,98232.06
2022-11-22T08:46:04.218Z,98231.88
2022-11-22T08:48:33.737Z,98231.88
2022-11-22T08:51:06.820Z,98234.72
2022-11-22T08:53:35.664Z,98231.88
2022-11-22T08:56:04.526Z,98229.50
2022-11-22T08:58:34.858Z,98241.25
2022-11-22T09:01:06.393Z,98240.66
2022-11-22T09:03:37.482Z,98240.94
2022-11-22T09:09:22.576Z,98248.97
2022-11-22T09:11:48.134Z,98239.81
2022-11-22T09:14:15.627Z,98249.34
2022-11-22T09:16:42.993Z,98247.28
2022-11-22T09:19:10.433Z,98253.00
2022-11-22T09:21:37.780Z,98251.72
2022-11-22T09:24:05.596Z,98252.84
2022-11-22T09:26:33.341Z,98258.75
2022-11-22T09:29:00.831Z,98260.13
2022-11-22T09:31:28.186Z,98264.97
2022-11-22T09:33:55.596Z,98265.56
2022-11-22T09:36:28.140Z,98264.19
2022-11-22T09:39:10.630Z,98273.31
2022-11-22T09:42:06.370Z,98273.63
2022-11-22T09:44:43.394Z,98280.75
2022-11-22T09:47:29.685Z,98282.50
2022-11-22T09:50:31.114Z,98287.94
2022-11-22T09:53:17.271Z,98290.13
2022-11-22T09:56:10.150Z,98300.06
2022-11-22T09:58:59.847Z,98296.41
2022-11-22T10:01:33.570Z,98306.53
2022-11-22T10:04:11.114Z,98305.44
2022-11-22T10:06:44.435Z,98300.69
2022-11-22T10:09:33.075Z,98307.50
2022-11-22T10:12:23.453Z,98310.63
2022-11-22T10:15:09.163Z,98317.47
2022-11-22T10:17:56.104Z,98311.41
2022-11-22T10:20:49.878Z,98323.09
2022-11-22T10:23:21.663Z,98324.19
2022-11-22T10:26:02.230Z,98332.75
2022-11-22T10:28:58.046Z,98338.13
2022-11-22T10:32:06.905Z,98337.47
2022-11-22T10:35:25.242Z,98344.22
2022-11-22T10:38:10.030Z,98351.53
2022-11-22T10:40:44.111Z,98343.84
2022-11-22T10:43:46.741Z,98348.03
2022-11-22T10:46:23.571Z,98334.19
2022-11-22T10:49:33.461Z,98339.44
2022-11-22T10:52:29.877Z,98349.09
2022-11-22T10:55:22.808Z,98353.16
2022-11-22T10:58:03.933Z,98358.56
2022-11-22T11:00:33.898Z,98347.63
2022-11-22T11:03:13.587Z,98356.03
2022-11-22T11:06:26.702Z,98363.53
2022-11-22T11:12:39.727Z,98375.28
2022-11-22T11:15:21.109Z,98379.00
2022-11-22T11:17:58.856Z,98365.16
2022-11-22T11:20:38.040Z,98385.25
2022-11-22T11:23:16.507Z,98392.00
2022-11-22T11:25:54.733Z,98394.09
2022-11-22T11:28:24.889Z,98383.56
2022-11-22T11:31:10.545Z,98390.41
2022-11-22T11:33:39.850Z,98384.94
2022-11-22T11:36:23.861Z,98385.19
2022-11-22T11:38:57.570Z,98393.69
2022-11-22T11:41:42.093Z,98395.28
2022-11-22T11:44:37.158Z,98398.44
2022-11-22T11:47:05.365Z,98391.13
2022-11-22T11:49:34.884Z,98390.34
2022-11-22T11:52:05.611Z,98382.13
2022-11-22T11:54:32.911Z,98380.59
2022-11-22T11:57:05.525Z,98385.06
2022-11-22T11:59:38.677Z,98391.19
2022-11-22T12:02:14.942Z,98388.28
2022-11-22T12:05:27.346Z,98385.63
2022-11-22T12:07:54.830Z,98382.00
2022-11-22T12:10:47.915Z,98394.16
2022-11-22T12:13:21.386Z,98391.72
2022-11-22T12:16:01.828Z,98401.31
2022-11-22T12:18:44.467Z,98419.59
2022-11-22T12:21:26.831Z,98417.25
2022-11-22T12:24:42.755Z,98420.69
2022-11-22T12:27:00.318Z,98413.84
2022-11-22T12:29:28.469Z,98420.47
2022-11-22T12:32:17.243Z,98419.13
2022-11-22T12:35:00.564Z,98426.53
2022-11-22T12:37:44.492Z,98410.69
2022-11-22T12:40:18.926Z,98423.91
2022-11-22T12:43:01.132Z,98427.09
2022-11-22T12:45:40.899Z,98430.25
2022-11-22T12:48:29.465Z,98423.41
2022-11-22T12:51:20.901Z,98424.44
2022-11-22T12:53:49.364Z,98385.84
2022-11-22T12:56:33.366Z,98416.53
2022-11-22T12:59:04.263Z,98432.66
2022-11-22T13:01:37.859Z,98429.22
2022-11-22T13:04:11.497Z,98427.91
2022-11-22T13:07:01.984Z,98421.28
2022-11-22T13:09:33.776Z,98431.34
2022-11-22T13:12:10.214Z,98426.31
2022-11-22T13:14:47.940Z,98433.19
2022-11-22T13:17:18.401Z,98425.53
2022-11-22T13:20:06.456Z,98455.97
2022-11-22T13:22:52.819Z,98457.53
2022-11-22T13:25:45.801Z,98463.91
2022-11-22T13:28:15.998Z,98472.09
2022-11-22T13:31:09.466Z,98460.44
2022-11-22T13:33:56.940Z,98460.72
2022-11-22T13:36:27.633Z,98464.41
2022-11-22T13:38:58.103Z,98472.06
2022-11-22T13:41:36.872Z,98471.25
2022-11-22T13:44:22.734Z,98474.19
2022-11-22T13:46:50.230Z,98472.84
2022-11-22T13:49:54.174Z,98474.16
2022-11-22T13:52:21.546Z,98471.50
2022-11-22T13:54:48.924Z,98468.84
2022-11-22T13:57:28.180Z,98477.84
2022-11-22T14:00:17.030Z,98480.78
2022-11-22T14:02:46.160Z,98476.53
2022-11-22T14:05:35.337Z,98482.09
2022-11-22T14:08:06.540Z,98480.47
2022-11-22T14:10:38.015Z,98479.16
2022-11-22T14:13:36.298Z,98465.66
2022-11-22T14:16:17.718Z,98478.34
2022-11-22T14:19:11.090Z,98483.88
2022-11-22T14:22:10.176Z,98485.22
2022-11-22T14:25:10.515Z,98475.13
2022-11-22T14:27:52.145Z,98458.13
2022-11-22T14:30:40.581Z,98460.00
2022-11-22T14:33:17.704Z,98487.81
2022-11-22T14:36:07.067Z,98490.47
2022-11-22T14:38:35.678Z,98488.84
2022-11-22T14:41:31.237Z,98492.81
2022-11-22T14:44:08.967Z,98487.25
2022-11-22T14:46:56.036Z,98495.66
2022-11-22T14:49:32.128Z,98501.47
2022-11-22T14:52:00.535Z,98515.44
2022-11-22T14:54:43.544Z,98510.69
2022-11-22T14:57:18.855Z,98481.25
2022-11-22T15:00:15.261Z,98499.84
2022-11-22T15:03:05.499Z,98506.97
2022-11-22T15:09:11.679Z,98512.16
2022-11-22T15:09:13.540Z,98499.78
2022-11-22T15:12:04.462Z,98512.16
2022-11-22T15:57:47.186Z,98548.50
2022-11-22T16:00:29.072Z,98549.28
2022-11-22T16:03:01.885Z,98553.47
2022-11-22T16:06:05.265Z,98556.69
2022-11-22T16:08:31.060Z,98532.81
2022-11-22T16:11:06.408Z,98546.03
2022-11-22T16:13:36.945Z,98544.69
2022-11-22T16:16:13.841Z,98555.09
2022-11-22T16:18:43.066Z,98561.09
2022-11-22T16:21:10.924Z,98556.78
2022-11-22T16:23:40.394Z,98557.59
2022-11-22T16:26:15.124Z,98561.34
2022-11-22T16:28:42.630Z,98564.19
2022-11-22T16:31:31.944Z,98568.44
2022-11-22T16:34:00.007Z,98560.44
2022-11-22T16:36:30.305Z,98569.72
2022-11-22T16:38:58.075Z,98562.50
2022-11-22T16:41:27.631Z,98556.91
2022-11-22T16:44:00.718Z,98574.09
2022-11-22T16:46:32.178Z,98593.38
2022-11-22T16:48:59.661Z,98585.91
2022-11-22T16:51:48.848Z,98585.59
2022-11-22T16:54:25.263Z,98592.75
2022-11-22T16:56:52.979Z,98598.00
2022-11-22T16:59:21.632Z,98599.56
2022-11-22T17:01:56.359Z,98599.25
2022-11-22T17:04:28.550Z,98601.09
2022-11-22T17:06:56.095Z,98587.78
2022-11-22T17:09:23.513Z,98603.94
2022-11-22T17:11:51.200Z,98606.06
2022-11-22T17:14:19.747Z,98606.31
2022-11-22T17:16:47.476Z,98601.28
2022-11-22T17:19:37.572Z,98612.88
2022-11-22T17:22:02.467Z,98608.66
2022-11-22T17:24:30.255Z,98614.97
2022-11-22T17:26:58.039Z,98617.38
2022-11-22T17:29:55.555Z,98613.13
2022-11-22T17:32:13.972Z,98616.56
2022-11-22T17:34:42.557Z,98611.84
2022-11-22T17:37:14.009Z,98615.25
2022-11-22T17:39:42.092Z,98620.75
2022-11-22T17:42:09.585Z,98625.72
2022-11-22T17:44:36.941Z,98603.69
2022-11-22T17:47:04.911Z,98619.59
2022-11-22T17:49:32.755Z,98614.31
2022-11-22T17:52:28.235Z,98613.38
2022-11-22T17:54:58.363Z,98607.69
2022-11-22T17:57:31.848Z,98612.19
2022-11-22T17:59:59.330Z,98608.13
2022-11-22T18:02:27.299Z,98616.09
2022-11-22T18:04:59.370Z,98628.50
2022-11-22T18:07:33.403Z,98629.03
2022-11-22T18:10:02.074Z,98637.84
2022-11-22T18:12:31.114Z,98626.72
2022-11-22T18:14:58.570Z,98634.41
2022-11-22T18:17:27.580Z,98644.09
2022-11-22T18:19:54.947Z,98638.28
2022-11-22T18:22:22.522Z,98635.91
2022-11-22T18:24:50.009Z,98650.13
2022-11-22T18:27:17.825Z,98607.69
2022-11-22T18:29:45.375Z,98641.69
2022-11-22T18:32:12.907Z,98632.34
2022-11-22T18:34:41.746Z,98641.69
2022-11-22T18:37:13.224Z,98640.63
2022-11-22T18:40:08.196Z,98639.28
2022-11-22T18:42:36.990Z,98630.44
2022-11-22T18:45:04.786Z,98626.53
2022-11-22T18:47:32.204Z,98632.59
2022-11-22T18:50:00.317Z,98613.53
2022-11-22T18:52:27.626Z,98625.19
2022-11-22T18:54:56.491Z,98625.13
2022-11-22T18:57:24.821Z,98623.16
2022-11-22T18:59:52.173Z,98630.25
2022-11-22T19:02:25.927Z,98630.69
2022-11-22T19:04:56.396Z,98636.75
2022-11-22T19:07:25.351Z,98631.03
2022-11-22T19:09:53.849Z,98640.69
2022-11-22T19:12:22.722Z,98634.06
2022-11-22T19:14:50.827Z,98641.56
2022-11-22T19:17:21.855Z,98637.97
2022-11-22T19:19:52.025Z,98638.75
2022-11-22T19:22:20.148Z,98640.38
2022-11-22T19:24:47.644Z,98655.94
2022-11-22T19:27:15.003Z,98656.50
2022-11-22T19:29:42.714Z,98663.53
2022-11-22T19:32:10.352Z,98667.03
2022-11-22T19:34:37.910Z,98669.09
2022-11-22T19:37:06.583Z,98673.56
2022-11-22T19:39:33.963Z,98674.06
2022-11-22T19:42:01.345Z,98676.75
2022-11-22T19:44:28.777Z,98679.88
2022-11-22T19:46:56.135Z,98687.66
2022-11-22T19:49:23.561Z,98683.69
2022-11-22T19:51:50.980Z,98684.31
2022-11-22T19:54:18.542Z,98685.03
2022-11-22T19:56:47.224Z,98688.00
2022-11-22T19:59:16.636Z,98692.50
2022-11-22T20:01:44.392Z,98689.00
2022-11-22T20:04:19.365Z,98691.63
2022-11-22T20:06:50.138Z,98692.97
2022-11-22T20:09:18.047Z,98691.72
2022-11-22T20:11:45.951Z,98690.34
2022-11-22T20:14:13.326Z,98686.28
2022-11-22T20:16:41.917Z,98690.72
2022-11-22T20:19:11.528Z,98700.56
2022-11-22T20:21:39.872Z,98697.47
2022-11-22T20:24:07.820Z,98691.09
2022-11-22T20:26:35.817Z,98699.22
2022-11-22T20:29:07.028Z,98697.84
2022-11-22T20:31:37.002Z,98699.03
2022-11-22T20:34:04.864Z,98706.47
2022-11-22T20:36:34.747Z,98700.97
2022-11-22T20:39:06.978Z,98704.28
2022-11-22T20:41:36.366Z,98714.66
2022-11-22T20:44:04.136Z,98683.66
2022-11-22T20:46:31.532Z,98714.03
2022-11-22T20:49:00.589Z,98716.78
2022-11-22T20:51:28.991Z,98715.75
2022-11-22T20:53:57.578Z,98725.13
2022-11-22T20:56:25.458Z,98714.72
2022-11-22T20:58:53.218Z,98715.06
2022-11-22T21:01:24.080Z,98711.97
2022-11-22T21:03:52.043Z,98717.34
2022-11-22T21:06:21.096Z,98717.03
2022-11-22T21:08:49.020Z,98718.97
2022-11-22T21:11:17.772Z,98718.72
2022-11-22T21:13:46.290Z,98717.91
2022-11-22T21:16:24.246Z,98717.91
2022-11-22T21:19:09.463Z,98722.16
2022-11-22T21:21:37.389Z,98727.97
2022-11-22T21:24:06.319Z,98729.94
2022-11-22T21:26:34.737Z,98723.31
2022-11-22T21:29:04.520Z,98725.94
2022-11-22T21:31:31.959Z,98729.69
2022-11-22T21:33:59.337Z,98733.66
2022-11-22T21:36:29.706Z,98735.41
2022-11-22T21:39:01.780Z,98727.06
2022-11-22T21:41:40.585Z,98739.38
2022-11-22T21:44:12.900Z,98733.34
2022-11-22T21:46:52.011Z,98718.03
2022-11-22T21:49:22.183Z,98735.06
2022-11-22T21:51:49.774Z,98738.59
2022-11-22T21:54:17.154Z,98735.06
2022-11-22T21:56:44.551Z,98736.53
2022-11-22T21:59:12.206Z,98746.66
2022-11-22T22:01:39.907Z,98739.72
2022-11-22T22:04:07.439Z,98733.53
2022-11-22T22:06:34.948Z,98717.75
2022-11-22T22:09:02.299Z,98725.19
2022-11-22T22:11:29.785Z,98725.44
2022-11-22T22:13:59.185Z,98732.16
2022-11-22T22:16:26.666Z,98724.22
2022-11-22T22:18:54.681Z,98731.44
2022-11-22T22:21:22.161Z,98727.34
2022-11-22T22:23:49.704Z,98730.88
2022-11-22T22:26:18.148Z,98729.25
2022-11-22T22:28:46.612Z,98729.13
2022-11-22T22:31:19.401Z,98715.53
2022-11-22T22:34:39.306Z,98720.56
2022-11-22T22:37:13.584Z,98714.75
2022-11-22T22:39:47.850Z,98723.50
2022-11-22T22:42:15.746Z,98694.91
2022-11-22T22:47:47.864Z,98732.84
2022-11-22T22:50:15.593Z,98729.53
2022-11-22T22:52:43.070Z,98725.72
2022-11-22T22:55:10.440Z,98723.63
2022-11-22T22:57:37.899Z,98712.28
2022-11-22T23:00:05.629Z,98732.44
2022-11-22T23:02:33.122Z,98724.00
2022-11-22T23:05:00.439Z,98725.44
2022-11-22T23:07:34.005Z,98721.09
2022-11-22T23:10:01.489Z,98735.41
2022-11-22T23:12:30.012Z,98731.06
2022-11-22T23:14:57.459Z,98730.47
2022-11-22T23:17:27.973Z,98726.41
2022-11-22T23:19:55.311Z,98727.78
2022-11-22T23:22:25.947Z,98731.19
2022-11-22T23:24:53.565Z,98732.41
2022-11-22T23:27:20.948Z,98730.00
2022-11-22T23:29:48.304Z,98734.50
2022-11-22T23:32:15.705Z,98733.34
2022-11-22T23:34:43.038Z,98732.16
2022-11-22T23:37:10.354Z,98710.97
2022-11-22T23:39:37.743Z,98723.84
2022-11-22T23:42:05.144Z,98732.78
2022-11-22T23:44:32.563Z,98719.56
2022-11-22T23:46:59.995Z,98729.25
2022-11-22T23:49:27.328Z,98721.84
2022-11-22T23:51:54.719Z,98721.06
2022-11-22T23:54:22.142Z,98736.19
2022-11-22T23:56:49.428Z,98736.63
2022-11-22T23:59:18.601Z,98734.66
